Time;durP1;ratioP1;P1;durP2;ratioP2;P2;SDS_P1;SDS_P2;PMS_P1;PMS_P2;Temp;Humidity;BMP_temperature;BMP_pressure;BME280_temperature;BME280_humidity;BME280_pressure;Samples;Min_cycle;Max_cycle;Signal;HPM_P1;HPM_P2
2022/03/31 00:00:35;;;;;;;12.40;7.23;;;4.80;99.90;;;;;;5094986;27;20237;-45
2022/03/31 00:03:04;;;;;;;10.20;7.47;;;4.80;99.90;;;;;;5079340;28;20203;-44
2022/03/31 00:05:31;;;;;;;11.90;7.40;;;4.80;99.90;;;;;;5094581;27;20577;-45
2022/03/31 00:07:59;;;;;;;12.63;8.03;;;4.80;99.90;;;;;;5093331;28;20212;-45
2022/03/31 00:10:31;;;;;;;9.30;6.90;;;4.80;99.90;;;;;;5084180;28;20470;-45
2022/03/31 00:13:00;;;;;;;11.43;7.37;;;4.80;99.90;;;;;;5073000;27;20427;-45
2022/03/31 00:15:29;;;;;;;11.10;7.63;;;4.80;99.90;;;;;;5089219;27;20244;-44
2022/03/31 00:17:58;;;;;;;11.37;7.47;;;4.70;99.90;;;;;;5083629;27;20243;-44
2022/03/31 00:20:26;;;;;;;10.47;7.27;;;4.70;99.90;;;;;;5088531;27;20598;-45
2022/03/31 00:22:53;;;;;;;12.47;7.33;;;4.70;99.90;;;;;;5090813;28;20225;-44
2022/03/31 00:25:20;;;;;;;10.10;7.43;;;4.70;99.90;;;;;;5084653;28;20233;-44
2022/03/31 00:27:47;;;;;;;10.97;7.87;;;4.70;99.90;;;;;;5083196;27;20277;-45
2022/03/31 00:30:15;;;;;;;10.17;8.13;;;4.60;99.90;;;;;;5077427;28;20219;-49
2022/03/31 00:32:43;;;;;;;11.40;7.93;;;4.60;99.90;;;;;;5083676;28;20211;-44
2022/03/31 00:35:13;;;;;;;11.07;7.17;;;4.60;99.90;;;;;;5083360;28;20436;-48
2022/03/31 00:37:41;;;;;;;8.90;7.13;;;4.60;99.90;;;;;;5096620;27;20756;-49
2022/03/31 00:40:09;;;;;;;11.27;7.50;;;4.60;99.90;;;;;;5092716;27;20381;-43
2022/03/31 00:42:41;;;;;;;8.80;7.17;;;4.60;99.90;;;;;;5091742;28;20642;-44
2022/03/31 00:45:16;;;;;;;10.77;7.63;;;4.60;99.90;;;;;;5069247;28;20223;-44
2022/03/31 00:47:42;;;;;;;10.07;7.83;;;4.60;99.90;;;;;;5096979;28;20212;-45
2022/03/31 00:50:13;;;;;;;12.13;7.83;;;4.60;99.90;;;;;;5078144;27;20467;-44
2022/03/31 00:52:40;;;;;;;9.13;7.60;;;4.60;99.90;;;;;;5093257;27;20240;-45
2022/03/31 00:55:10;;;;;;;10.80;8.13;;;4.70;99.90;;;;;;5095130;28;20289;-44
2022/03/31 00:57:37;;;;;;;11.97;7.77;;;4.70;99.90;;;;;;5084096;28;20232;-45
2022/03/31 01:00:07;;;;;;;9.90;7.47;;;4.60;99.90;;;;;;5078559;28;20219;-45
2022/03/31 01:02:36;;;;;;;10.67;7.90;;;4.60;99.90;;;;;;5093748;28;20377;-46
2022/03/31 01:05:04;;;;;;;11.23;7.97;;;4.60;99.90;;;;;;5081222;28;20327;-43
2022/03/31 01:07:35;;;;;;;10.93;7.77;;;4.70;99.90;;;;;;5092309;27;20690;-45
2022/03/31 01:10:02;;;;;;;9.80;7.60;;;4.60;99.90;;;;;;5093691;28;20283;-44
2022/03/31 01:12:29;;;;;;;10.17;7.77;;;4.60;99.90;;;;;;5081454;28;20207;-46
2022/03/31 01:15:07;;;;;;;13.40;8.37;;;4.60;99.90;;;;;;5079256;28;20299;-45
2022/03/31 01:17:34;;;;;;;10.13;7.40;;;4.50;99.90;;;;;;5096146;28;20409;-45
2022/03/31 01:20:01;;;;;;;10.83;7.10;;;4.60;99.90;;;;;;5078461;28;20629;-46
2022/03/31 01:22:31;;;;;;;9.93;7.10;;;4.60;99.90;;;;;;5094882;28;20209;-46
2022/03/31 01:25:00;;;;;;;11.67;7.70;;;4.60;99.90;;;;;;5097662;28;20233;-46
2022/03/31 01:27:27;;;;;;;10.80;7.80;;;4.60;99.90;;;;;;5090151;27;20401;-44
2022/03/31 01:29:55;;;;;;;9.60;7.20;;;4.50;99.90;;;;;;5097568;28;20209;-45
2022/03/31 01:32:22;;;;;;;11.27;7.77;;;4.60;99.90;;;;;;5077081;28;20662;-44
2022/03/31 01:34:49;;;;;;;9.10;7.00;;;4.50;99.90;;;;;;5090681;27;20330;-44
2022/03/31 01:37:16;;;;;;;11.77;6.97;;;4.60;99.90;;;;;;5097484;28;20273;-46
2022/03/31 01:39:44;;;;;;;9.10;6.80;;;4.50;99.90;;;;;;5100644;28;20232;-44
2022/03/31 01:42:13;;;;;;;8.80;7.10;;;4.50;99.90;;;;;;5098255;27;20269;-46
2022/03/31 01:44:40;;;;;;;9.27;7.00;;;4.50;99.90;;;;;;5091341;27;20342;-45
2022/03/31 01:47:08;;;;;;;11.47;7.10;;;4.50;99.90;;;;;;5079961;28;20284;-46
2022/03/31 01:49:36;;;;;;;9.23;6.87;;;4.50;99.90;;;;;;5083720;28;20690;-45
2022/03/31 01:52:04;;;;;;;9.47;6.63;;;4.40;99.90;;;;;;5094835;27;20285;-46
2022/03/31 01:54:31;;;;;;;8.03;6.60;;;4.50;99.90;;;;;;5090232;28;20505;-44
2022/03/31 01:56:58;;;;;;;9.03;7.13;;;4.50;99.90;;;;;;5094412;28;20248;-46
2022/03/31 01:59:33;;;;;;;8.03;6.70;;;4.50;99.90;;;;;;5080587;28;20658;-42
2022/03/31 02:02:00;;;;;;;7.70;6.50;;;4.50;99.90;;;;;;5079554;28;20217;-49
2022/03/31 02:04:27;;;;;;;7.93;6.50;;;4.40;99.90;;;;;;5078786;28;20549;-45
2022/03/31 02:06:54;;;;;;;7.23;6.40;;;4.40;99.90;;;;;;5097495;27;20232;-43
2022/03/31 02:09:21;;;;;;;9.17;6.80;;;4.40;99.90;;;;;;5091195;28;20719;-48
2022/03/31 02:11:48;;;;;;;7.20;6.50;;;4.50;99.90;;;;;;5095692;27;20237;-44
2022/03/31 02:14:15;;;;;;;7.67;6.27;;;4.50;99.90;;;;;;5092983;28;20265;-49
2022/03/31 02:16:43;;;;;;;9.80;6.73;;;4.40;99.90;;;;;;5071849;28;20221;-46
2022/03/31 02:19:10;;;;;;;9.43;5.57;;;4.40;99.90;;;;;;5095788;28;20206;-48
2022/03/31 02:21:37;;;;;;;9.23;6.17;;;4.50;99.90;;;;;;5079745;28;20288;-47
2022/03/31 02:24:04;;;;;;;8.80;5.43;;;4.40;99.90;;;;;;5091390;28;20238;-47
2022/03/31 02:26:31;;;;;;;10.83;6.40;;;4.50;99.90;;;;;;5085355;28;20309;-46
2022/03/31 02:28:57;;;;;;;7.80;6.13;;;4.40;99.90;;;;;;5092375;28;20277;-45
2022/03/31 02:31:24;;;;;;;8.40;5.70;;;4.40;99.90;;;;;;5078600;28;20211;-46
2022/03/31 02:33:52;;;;;;;8.17;5.80;;;4.50;99.90;;;;;;5079392;28;20329;-44
2022/03/31 02:36:19;;;;;;;10.80;5.80;;;4.50;99.90;;;;;;5083414;28;20293;-45
2022/03/31 02:38:46;;;;;;;10.00;5.90;;;4.50;99.90;;;;;;5092359;28;20237;-44
2022/03/31 02:41:13;;;;;;;10.27;6.37;;;4.50;99.90;;;;;;5090023;28;20216;-49
2022/03/31 02:43:40;;;;;;;8.70;5.70;;;4.40;99.90;;;;;;5092489;28;20288;-43
2022/03/31 02:46:08;;;;;;;9.57;5.50;;;4.40;99.90;;;;;;5080512;28;20207;-47
2022/03/31 02:48:36;;;;;;;10.53;5.83;;;4.40;99.90;;;;;;5077607;28;20704;-46
2022/03/31 02:51:04;;;;;;;9.47;5.40;;;4.40;99.90;;;;;;5096624;27;20209;-49
2022/03/31 02:56:15;;;;;;;11.10;5.93;;;4.40;99.90;;;;;;5098232;27;20255;-47
2022/03/31 02:58:42;;;;;;;6.77;4.93;;;4.40;99.90;;;;;;5096377;28;20203;-43
2022/03/31 03:01:10;;;;;;;9.43;5.07;;;4.30;99.90;;;;;;5090589;28;20514;-49
2022/03/31 03:03:37;;;;;;;9.93;5.50;;;4.30;99.90;;;;;;5086095;28;20222;-49
2022/03/31 03:06:05;;;;;;;8.30;5.17;;;4.30;99.90;;;;;;5084085;28;20287;-43
2022/03/31 03:08:32;;;;;;;8.27;4.70;;;4.30;99.90;;;;;;5082293;27;20309;-48
2022/03/31 03:11:00;;;;;;;6.20;4.43;;;4.30;99.90;;;;;;5086879;28;20360;-43
2022/03/31 03:13:27;;;;;;;5.03;4.27;;;4.40;99.90;;;;;;5098353;27;20227;-43
2022/03/31 03:15:54;;;;;;;8.17;5.13;;;4.30;99.90;;;;;;5093053;27;20241;-47
2022/03/31 03:18:21;;;;;;;8.07;4.60;;;4.20;99.90;;;;;;5090692;28;20211;-44
2022/03/31 03:20:48;;;;;;;6.03;4.50;;;4.20;99.90;;;;;;5084132;27;20221;-49
2022/03/31 03:23:16;;;;;;;6.63;4.27;;;4.10;99.90;;;;;;5089526;28;20653;-43
2022/03/31 03:25:43;;;;;;;6.23;4.43;;;4.20;99.90;;;;;;5085061;27;20255;-48
2022/03/31 03:28:10;;;;;;;7.23;4.33;;;4.20;99.90;;;;;;5092400;27;20488;-45
2022/03/31 03:30:37;;;;;;;5.70;4.47;;;4.10;99.90;;;;;;5093689;27;20202;-46
2022/03/31 03:33:04;;;;;;;5.77;4.53;;;4.10;99.90;;;;;;5085097;27;20870;-46
2022/03/31 03:35:31;;;;;;;5.57;4.53;;;4.10;99.90;;;;;;5095719;28;20282;-44
2022/03/31 03:37:58;;;;;;;6.50;4.30;;;4.10;99.90;;;;;;5076994;28;20884;-45
2022/03/31 03:40:26;;;;;;;5.03;3.90;;;4.10;99.90;;;;;;5078586;28;20205;-46
2022/03/31 03:42:53;;;;;;;6.37;3.90;;;4.10;99.90;;;;;;5091585;27;20241;-46
2022/03/31 03:45:20;;;;;;;6.03;3.90;;;4.10;99.90;;;;;;5094629;28;20270;-44
2022/03/31 03:47:48;;;;;;;7.93;4.03;;;4.10;99.90;;;;;;5088819;27;20277;-45
2022/03/31 03:50:16;;;;;;;5.20;3.87;;;4.00;99.90;;;;;;5090866;27;20218;-45
2022/03/31 03:52:43;;;;;;;7.90;4.17;;;4.00;99.90;;;;;;5078453;27;20276;-46
2022/03/31 03:55:11;;;;;;;7.17;4.10;;;3.80;99.90;;;;;;5087281;28;20465;-44
2022/03/31 03:57:40;;;;;;;4.23;3.60;;;3.90;99.90;;;;;;5088481;27;20344;-45
2022/03/31 04:00:09;;;;;;;11.37;3.80;;;3.80;99.90;;;;;;5093133;28;20384;-45
2022/03/31 04:02:36;;;;;;;6.13;4.03;;;3.80;99.90;;;;;;5075708;27;20513;-44
2022/03/31 04:05:04;;;;;;;6.60;3.33;;;3.80;99.90;;;;;;5087482;28;20596;-44
2022/03/31 04:07:31;;;;;;;6.07;3.57;;;3.80;99.90;;;;;;5075373;28;20312;-44
2022/03/31 04:09:57;;;;;;;4.00;3.50;;;3.80;99.90;;;;;;5082984;27;20295;-44
2022/03/31 04:12:24;;;;;;;3.57;3.27;;;3.80;99.90;;;;;;5080147;28;20207;-46
2022/03/31 04:14:52;;;;;;;5.17;3.97;;;3.70;99.90;;;;;;5093593;27;20668;-45
2022/03/31 04:17:19;;;;;;;4.10;3.43;;;3.70;99.90;;;;;;5089539;28;20311;-46
2022/03/31 04:19:46;;;;;;;5.87;3.63;;;3.80;99.90;;;;;;5084053;27;20309;-45
2022/03/31 04:22:13;;;;;;;6.60;3.80;;;3.70;99.90;;;;;;5085640;27;20227;-46
2022/03/31 04:24:40;;;;;;;4.97;3.80;;;3.70;99.90;;;;;;5072134;27;20233;-46
2022/03/31 04:27:07;;;;;;;3.97;3.53;;;3.60;99.90;;;;;;5076699;27;20199;-44
2022/03/31 04:29:34;;;;;;;4.73;3.50;;;3.70;99.90;;;;;;5090332;27;20532;-45
2022/03/31 04:32:02;;;;;;;5.27;3.67;;;3.60;99.90;;;;;;5090147;27;20509;-45
2022/03/31 04:34:30;;;;;;;3.70;3.13;;;3.60;99.90;;;;;;5090513;27;20585;-45
2022/03/31 04:36:57;;;;;;;5.50;3.87;;;3.60;99.90;;;;;;5086090;27;20256;-44
2022/03/31 04:39:24;;;;;;;4.47;3.40;;;3.40;99.90;;;;;;5084451;27;20435;-44
2022/03/31 04:41:50;;;;;;;5.73;4.27;;;3.40;99.90;;;;;;5079585;27;20326;-46
2022/03/31 04:44:17;;;;;;;4.87;3.40;;;3.20;99.90;;;;;;5089179;27;20303;-45
2022/03/31 04:46:45;;;;;;;4.73;3.83;;;3.20;99.90;;;;;;5090628;28;20254;-46
2022/03/31 04:49:13;;;;;;;6.07;4.23;;;3.20;99.90;;;;;;5088747;27;20259;-44
2022/03/31 04:51:40;;;;;;;4.67;3.97;;;3.20;99.90;;;;;;5085598;27;20455;-46
2022/03/31 04:54:07;;;;;;;5.97;4.37;;;3.10;99.90;;;;;;5077330;28;21009;-44
2022/03/31 04:56:34;;;;;;;4.90;4.40;;;3.20;99.90;;;;;;5081157;28;20514;-44
2022/03/31 04:59:01;;;;;;;5.47;4.10;;;3.00;99.90;;;;;;5091817;28;20280;-46
2022/03/31 05:01:28;;;;;;;6.23;4.07;;;2.90;99.90;;;;;;5079450;28;20426;-46
2022/03/31 05:03:55;;;;;;;6.23;4.77;;;2.90;99.90;;;;;;5095452;28;20265;-44
2022/03/31 05:06:23;;;;;;;5.43;4.20;;;2.80;99.90;;;;;;5078151;27;20236;-46
2022/03/31 05:08:50;;;;;;;4.80;3.90;;;2.80;99.90;;;;;;5091889;27;20212;-45
2022/03/31 05:11:17;;;;;;;6.00;4.27;;;2.80;99.90;;;;;;5069991;28;20492;-46
2022/03/31 05:13:44;;;;;;;4.90;4.40;;;2.80;99.90;;;;;;5086632;27;20219;-44
2022/03/31 05:16:11;;;;;;;5.33;4.13;;;2.80;99.90;;;;;;5084372;27;20243;-46
2022/03/31 05:18:38;;;;;;;4.83;3.80;;;2.80;99.90;;;;;;5092645;27;20298;-44
2022/03/31 05:21:05;;;;;;;5.17;4.23;;;2.70;99.90;;;;;;5084498;28;20216;-44
2022/03/31 05:23:33;;;;;;;5.97;4.63;;;2.70;99.90;;;;;;5083668;27;20275;-45
2022/03/31 05:26:00;;;;;;;6.00;4.43;;;2.60;99.90;;;;;;5083046;28;20298;-45
2022/03/31 05:28:26;;;;;;;5.50;4.37;;;2.50;99.90;;;;;;5083951;28;20434;-46
2022/03/31 05:30:53;;;;;;;5.97;4.20;;;2.60;99.90;;;;;;5090323;28;20226;-44
2022/03/31 05:33:20;;;;;;;5.83;4.47;;;2.60;99.90;;;;;;5098297;27;20277;-45
2022/03/31 05:35:47;;;;;;;5.90;4.60;;;2.60;99.90;;;;;;5095144;27;20273;-44
2022/03/31 05:38:14;;;;;;;6.83;4.50;;;2.50;99.90;;;;;;5087121;27;20317;-44
2022/03/31 05:40:43;;;;;;;5.43;4.63;;;2.60;99.90;;;;;;5083118;28;20206;-45
2022/03/31 05:43:09;;;;;;;5.43;4.47;;;2.50;99.90;;;;;;5080861;28;20695;-44
2022/03/31 05:45:37;;;;;;;6.47;4.40;;;2.50;99.90;;;;;;5100573;27;20236;-45
2022/03/31 05:48:04;;;;;;;5.87;4.50;;;2.50;99.90;;;;;;5089616;28;20205;-44
2022/03/31 05:50:31;;;;;;;4.57;4.17;;;2.40;99.90;;;;;;5096481;28;20235;-46
2022/03/31 05:52:58;;;;;;;4.90;4.23;;;2.40;99.90;;;;;;5077364;28;20702;-45
2022/03/31 05:55:24;;;;;;;5.93;4.47;;;2.30;99.90;;;;;;5094194;28;20202;-44
2022/03/31 05:57:53;;;;;;;4.97;4.47;;;2.40;99.90;;;;;;5082659;28;20212;-44
2022/03/31 06:00:21;;;;;;;6.23;4.80;;;2.30;99.90;;;;;;5083515;28;20462;-44
2022/03/31 06:02:49;;;;;;;5.57;4.33;;;2.30;99.90;;;;;;5083788;28;20416;-44
2022/03/31 06:05:16;;;;;;;5.00;4.37;;;2.20;99.90;;;;;;5092418;28;20220;-45
2022/03/31 06:07:43;;;;;;;5.73;4.20;;;2.30;99.90;;;;;;5085462;28;20271;-44
2022/03/31 06:10:10;;;;;;;4.37;3.97;;;2.30;99.90;;;;;;5093996;28;20259;-44
2022/03/31 06:12:37;;;;;;;4.90;4.10;;;2.20;99.90;;;;;;5080448;28;20207;-45
2022/03/31 06:15:08;;;;;;;5.50;4.77;;;2.20;99.90;;;;;;5083777;28;20230;-44
2022/03/31 06:17:35;;;;;;;5.73;4.87;;;2.20;99.90;;;;;;5092854;28;20280;-44
2022/03/31 06:20:02;;;;;;;6.00;5.00;;;2.30;99.90;;;;;;5097109;28;20376;-43
2022/03/31 06:22:29;;;;;;;4.97;4.20;;;2.30;99.90;;;;;;5093510;28;20216;-42
2022/03/31 06:24:56;;;;;;;6.37;5.07;;;2.30;99.90;;;;;;5085884;28;20385;-47
2022/03/31 06:27:23;;;;;;;6.17;5.27;;;2.30;99.90;;;;;;5099554;28;20722;-42
2022/03/31 06:29:51;;;;;;;6.53;4.60;;;2.20;99.90;;;;;;5079503;28;20944;-47
2022/03/31 06:32:20;;;;;;;5.90;5.00;;;2.30;99.90;;;;;;5090528;27;20597;-45
2022/03/31 06:34:47;;;;;;;6.87;5.37;;;2.30;99.90;;;;;;5096543;28;20434;-46
2022/03/31 06:37:14;;;;;;;6.77;5.70;;;2.30;99.90;;;;;;5107976;28;20543;-44
2022/03/31 06:39:41;;;;;;;7.73;5.73;;;2.20;99.90;;;;;;5100186;27;20272;-46
2022/03/31 06:42:08;;;;;;;7.13;5.80;;;2.30;99.90;;;;;;5105986;27;20236;-45
2022/03/31 06:44:35;;;;;;;7.93;5.57;;;2.30;99.90;;;;;;5087631;27;20445;-46
2022/03/31 06:47:02;;;;;;;7.57;6.07;;;2.20;99.90;;;;;;5094160;27;20258;-44
2022/03/31 06:49:30;;;;;;;7.07;5.53;;;2.20;99.90;;;;;;5102229;28;20482;-45
2022/03/31 06:51:57;;;;;;;6.77;6.07;;;2.20;99.90;;;;;;5107240;28;20479;-44
2022/03/31 06:54:24;;;;;;;6.73;5.20;;;2.20;99.90;;;;;;5109752;28;20228;-45
2022/03/31 06:56:51;;;;;;;6.40;5.40;;;2.20;99.90;;;;;;5105333;28;20208;-45
2022/03/31 06:59:20;;;;;;;7.73;6.07;;;2.30;99.90;;;;;;5111033;28;20516;-45
2022/03/31 07:01:47;;;;;;;7.30;5.70;;;2.30;99.90;;;;;;5073224;28;21169;-46
2022/03/31 07:04:14;;;;;;;7.70;5.93;;;2.30;99.90;;;;;;5098681;28;20539;-45
2022/03/31 07:06:42;;;;;;;7.47;5.73;;;2.30;99.90;;;;;;5103860;27;20592;-46
2022/03/31 07:09:09;;;;;;;9.40;6.37;;;2.30;99.90;;;;;;5105301;28;20285;-44
2022/03/31 07:11:37;;;;;;;9.07;6.30;;;2.30;99.90;;;;;;5102465;27;20524;-46
2022/03/31 07:14:05;;;;;;;9.17;6.73;;;2.30;99.90;;;;;;5094642;28;20222;-46
2022/03/31 07:16:32;;;;;;;8.87;6.10;;;2.30;99.90;;;;;;5091129;28;20398;-44
2022/03/31 07:19:01;;;;;;;7.87;5.60;;;2.30;99.90;;;;;;5076214;28;20333;-46
2022/03/31 07:21:28;;;;;;;11.10;6.97;;;2.40;99.90;;;;;;5083273;28;20211;-45
2022/03/31 07:23:56;;;;;;;7.67;6.30;;;2.30;99.90;;;;;;5093776;27;20448;-45
2022/03/31 07:26:23;;;;;;;9.27;6.27;;;2.30;99.90;;;;;;5094243;27;20216;-45
2022/03/31 07:28:50;;;;;;;7.73;6.27;;;2.30;99.90;;;;;;5097616;28;20511;-44
2022/03/31 07:31:17;;;;;;;10.23;6.47;;;2.20;99.90;;;;;;5077105;27;20208;-44
2022/03/31 07:33:45;;;;;;;7.63;6.57;;;2.10;99.90;;;;;;5090302;28;20788;-43
2022/03/31 07:36:13;;;;;;;8.73;6.40;;;2.10;99.90;;;;;;5079799;28;20218;-44
2022/03/31 07:38:41;;;;;;;8.07;6.17;;;2.30;99.90;;;;;;5092310;28;20216;-44
2022/03/31 07:41:09;;;;;;;7.80;6.10;;;2.30;99.90;;;;;;5099997;27;20201;-43
2022/03/31 07:43:36;;;;;;;7.73;6.20;;;2.30;99.90;;;;;;5094145;27;20225;-44
2022/03/31 07:46:03;;;;;;;7.00;5.97;;;2.40;99.90;;;;;;5083884;27;20257;-46
2022/03/31 07:48:30;;;;;;;9.10;6.70;;;2.40;99.90;;;;;;5083683;28;20523;-44
2022/03/31 07:50:58;;;;;;;8.40;6.33;;;2.40;99.90;;;;;;5087533;28;20280;-46
2022/03/31 07:53:25;;;;;;;7.53;5.70;;;2.40;99.90;;;;;;5084196;27;20417;-44
2022/03/31 07:55:52;;;;;;;6.30;5.17;;;2.30;99.90;;;;;;5105137;28;20548;-45
2022/03/31 07:58:20;;;;;;;6.27;5.17;;;2.30;99.90;;;;;;5102337;28;20207;-43
2022/03/31 08:00:52;;;;;;;6.23;5.43;;;2.30;99.90;;;;;;5107491;27;20593;-44
2022/03/31 08:03:19;;;;;;;6.43;5.47;;;2.20;99.90;;;;;;5089084;27;20386;-44
2022/03/31 08:05:47;;;;;;;8.60;6.00;;;2.20;99.90;;;;;;5089597;28;20261;-44
2022/03/31 08:08:14;;;;;;;6.20;5.27;;;2.30;99.90;;;;;;5093836;28;20341;-44
2022/03/31 08:10:41;;;;;;;6.17;5.17;;;2.20;99.90;;;;;;5103448;28;20557;-45
2022/03/31 08:13:09;;;;;;;7.53;5.47;;;2.20;99.90;;;;;;5095918;27;20231;-46
2022/03/31 08:15:38;;;;;;;6.37;5.47;;;2.20;99.90;;;;;;5102133;27;20206;-44
2022/03/31 08:18:05;;;;;;;7.10;5.67;;;2.20;99.90;;;;;;5090306;27;20224;-46
2022/03/31 08:20:32;;;;;;;7.17;5.90;;;2.10;99.90;;;;;;5093214;27;20558;-44
2022/03/31 08:22:59;;;;;;;6.97;5.97;;;2.20;99.90;;;;;;5087573;27;20553;-45
2022/03/31 08:25:26;;;;;;;5.87;4.93;;;2.10;99.90;;;;;;5098800;28;20354;-44
2022/03/31 08:27:53;;;;;;;7.47;5.97;;;2.10;99.90;;;;;;5099833;27;20619;-45
2022/03/31 08:30:23;;;;;;;5.47;4.97;;;2.20;99.90;;;;;;5098071;27;20360;-45
2022/03/31 08:32:52;;;;;;;6.37;5.37;;;2.20;99.90;;;;;;5080384;27;20232;-44
2022/03/31 08:35:19;;;;;;;6.77;5.57;;;2.30;99.90;;;;;;5083104;28;20201;-44
2022/03/31 08:37:47;;;;;;;7.13;5.90;;;2.20;99.90;;;;;;5056272;27;20205;-44
2022/03/31 08:40:15;;;;;;;6.47;5.60;;;2.20;99.90;;;;;;5097737;27;20228;-44
2022/03/31 08:42:43;;;;;;;6.53;5.10;;;2.10;99.90;;;;;;5081210;28;20211;-44
2022/03/31 08:45:14;;;;;;;6.80;5.47;;;2.10;99.90;;;;;;5093332;27;20230;-43
2022/03/31 08:47:43;;;;;;;6.50;5.33;;;2.10;99.90;;;;;;5090091;28;20280;-45
2022/03/31 08:50:12;;;;;;;6.80;5.87;;;2.00;99.90;;;;;;5078386;28;20207;-44
2022/03/31 08:52:39;;;;;;;7.17;5.20;;;2.00;99.90;;;;;;5089239;28;20214;-48
2022/03/31 08:55:08;;;;;;;7.53;5.43;;;2.10;99.90;;;;;;5079001;28;20440;-47
2022/03/31 08:57:43;;;;;;;6.83;5.77;;;2.20;99.90;;;;;;5089824;28;20209;-47
2022/03/31 09:00:12;;;;;;;6.27;5.37;;;2.20;99.90;;;;;;5083451;27;20371;-46
2022/03/31 09:02:40;;;;;;;7.03;5.80;;;2.20;99.90;;;;;;5090662;28;20217;-48
2022/03/31 09:05:09;;;;;;;7.80;6.13;;;2.30;99.90;;;;;;5069189;28;20782;-44
2022/03/31 09:07:51;;;;;;;8.40;6.57;;;2.20;99.90;;;;;;5097351;27;20457;-45
2022/03/31 09:10:26;;;;;;;7.97;6.17;;;2.10;99.90;;;;;;5093039;27;20210;-45
2022/03/31 09:12:53;;;;;;;7.83;5.87;;;2.10;99.90;;;;;;5084159;27;20205;-42
2022/03/31 09:15:19;;;;;;;8.33;6.07;;;2.20;99.90;;;;;;5093433;28;20226;-45
2022/03/31 09:17:46;;;;;;;7.60;6.33;;;2.10;99.90;;;;;;5098019;28;20227;-48
2022/03/31 09:20:13;;;;;;;8.37;5.80;;;2.20;99.90;;;;;;5087328;28;20204;-43
2022/03/31 09:22:49;;;;;;;8.13;6.27;;;2.20;99.90;;;;;;5092331;27;20282;-48
2022/03/31 09:25:24;;;;;;;8.70;6.63;;;2.20;99.90;;;;;;5093577;28;20205;-47
2022/03/31 09:27:51;;;;;;;9.23;7.03;;;2.30;99.90;;;;;;5074306;28;20330;-44
2022/03/31 09:30:18;;;;;;;7.37;6.20;;;2.30;99.90;;;;;;5091144;27;20207;-44
2022/03/31 09:32:49;;;;;;;9.07;6.70;;;2.20;99.90;;;;;;5098477;28;20205;-44
2022/03/31 09:35:18;;;;;;;8.73;6.60;;;2.20;99.90;;;;;;5100544;28;20236;-43
2022/03/31 09:37:48;;;;;;;10.10;6.70;;;2.30;99.90;;;;;;5076724;28;20445;-44
2022/03/31 09:40:15;;;;;;;7.97;6.90;;;2.20;99.90;;;;;;5088759;28;20201;-44
2022/03/31 09:42:42;;;;;;;7.83;6.27;;;2.20;99.90;;;;;;5085265;28;20267;-44
2022/03/31 09:45:10;;;;;;;9.43;7.13;;;2.20;99.90;;;;;;5088201;28;20330;-44
2022/03/31 09:47:44;;;;;;;10.10;7.40;;;2.30;99.90;;;;;;5087173;28;20295;-44
2022/03/31 09:50:12;;;;;;;10.00;7.20;;;2.20;99.90;;;;;;5098844;27;20329;-45
2022/03/31 09:52:40;;;;;;;10.30;7.03;;;2.20;99.90;;;;;;5079928;28;20292;-48
2022/03/31 09:55:11;;;;;;;9.30;7.37;;;2.10;99.90;;;;;;5096327;28;20416;-45
2022/03/31 09:57:39;;;;;;;9.07;7.43;;;2.10;99.90;;;;;;5081368;28;20227;-48
2022/03/31 10:00:08;;;;;;;10.73;7.00;;;2.20;99.90;;;;;;5084612;28;20512;-45
2022/03/31 10:02:36;;;;;;;14.33;8.90;;;2.20;99.90;;;;;;5084897;27;20216;-47
2022/03/31 10:05:04;;;;;;;9.53;6.87;;;2.20;99.90;;;;;;5093977;28;20207;-41
2022/03/31 10:07:31;;;;;;;9.37;6.90;;;2.30;99.90;;;;;;5094711;28;20222;-44
2022/03/31 10:09:59;;;;;;;9.50;7.27;;;2.20;99.90;;;;;;5079790;28;20392;-44
2022/03/31 10:12:36;;;;;;;11.40;7.50;;;2.20;99.90;;;;;;5087969;28;20494;-46
2022/03/31 10:15:09;;;;;;;10.10;7.80;;;2.30;99.90;;;;;;5086728;28;20225;-43
2022/03/31 10:17:37;;;;;;;10.30;7.70;;;2.30;99.90;;;;;;5087466;28;20385;-48
2022/03/31 10:20:08;;;;;;;10.43;7.93;;;2.30;99.90;;;;;;5096770;28;20227;-44
2022/03/31 10:25:21;;;;;;;11.20;8.13;;;2.40;99.90;;;;;;5083477;28;20301;-44
2022/03/31 10:27:52;;;;;;;10.97;8.47;;;2.50;99.90;;;;;;5076873;28;20538;-43
2022/03/31 10:30:21;;;;;;;12.33;8.23;;;2.40;99.90;;;;;;5097509;28;20205;-44
2022/03/31 10:32:53;;;;;;;13.13;9.10;;;2.50;99.90;;;;;;5094496;28;20262;-43
2022/03/31 10:35:25;;;;;;;11.07;8.83;;;2.40;99.90;;;;;;5097244;28;20465;-44
2022/03/31 10:37:52;;;;;;;11.63;8.93;;;2.60;99.90;;;;;;5092995;28;20276;-44
2022/03/31 10:40:30;;;;;;;13.43;9.90;;;2.50;99.90;;;;;;5082935;28;20285;-45
2022/03/31 10:42:58;;;;;;;14.03;10.40;;;2.60;99.90;;;;;;5080726;28;20314;-43
2022/03/31 10:45:36;;;;;;;16.07;10.50;;;2.50;99.90;;;;;;5097025;28;20703;-45
2022/03/31 10:48:15;;;;;;;14.93;11.00;;;2.60;99.90;;;;;;5085388;28;20465;-45
2022/03/31 10:50:42;;;;;;;14.33;11.00;;;2.60;99.90;;;;;;5088863;28;20243;-43
2022/03/31 10:53:09;;;;;;;14.90;10.73;;;2.50;99.90;;;;;;5097258;28;20735;-45
2022/03/31 10:55:41;;;;;;;13.13;10.17;;;2.50;99.90;;;;;;5093299;27;20687;-43
2022/03/31 10:58:21;;;;;;;15.77;10.60;;;2.50;99.90;;;;;;5087216;28;20591;-44
2022/03/31 11:00:50;;;;;;;12.07;9.43;;;2.50;99.90;;;;;;5076851;28;20484;-43
2022/03/31 11:03:18;;;;;;;13.73;9.07;;;2.50;99.90;;;;;;5096423;28;20394;-42
2022/03/31 11:05:45;;;;;;;12.40;9.43;;;2.40;99.90;;;;;;5084218;28;20216;-47
2022/03/31 11:08:17;;;;;;;11.00;8.97;;;2.30;99.90;;;;;;5095089;28;20231;-42
2022/03/31 11:10:45;;;;;;;11.13;8.73;;;2.40;99.90;;;;;;5098312;28;20203;-45
2022/03/31 11:13:15;;;;;;;14.47;9.43;;;2.40;99.90;;;;;;5089365;27;20275;-44
2022/03/31 11:15:44;;;;;;;9.70;8.17;;;2.40;99.90;;;;;;5088155;28;20214;-45
2022/03/31 11:18:11;;;;;;;8.50;7.60;;;2.40;99.90;;;;;;5098504;28;20195;-44
2022/03/31 11:20:38;;;;;;;11.00;8.13;;;2.30;99.90;;;;;;5098061;28;20210;-45
2022/03/31 11:23:07;;;;;;;10.70;8.10;;;2.40;99.90;;;;;;5096192;27;20586;-44
2022/03/31 11:25:34;;;;;;;10.60;8.13;;;2.30;99.90;;;;;;5082834;27;20453;-44
2022/03/31 11:28:08;;;;;;;10.73;7.97;;;2.50;99.90;;;;;;5049959;27;20259;-44
2022/03/31 11:30:36;;;;;;;10.80;7.23;;;2.60;99.90;;;;;;5079990;27;20209;-44
2022/03/31 11:33:03;;;;;;;13.37;8.00;;;2.60;99.90;;;;;;5057020;27;20488;-44
2022/03/31 11:35:30;;;;;;;10.40;7.37;;;2.60;99.90;;;;;;5068261;28;20209;-43
2022/03/31 11:38:00;;;;;;;8.53;6.47;;;2.60;99.90;;;;;;5076411;27;20591;-43
2022/03/31 11:40:29;;;;;;;6.83;5.77;;;2.80;99.90;;;;;;5082261;28;21040;-43
2022/03/31 11:42:58;;;;;;;7.60;5.70;;;2.60;99.90;;;;;;5073056;28;20309;-45
2022/03/31 11:45:31;;;;;;;8.37;6.00;;;2.80;99.90;;;;;;5096079;28;20206;-44
2022/03/31 11:48:01;;;;;;;10.93;6.60;;;2.90;99.90;;;;;;5054837;27;20460;-44
2022/03/31 11:50:30;;;;;;;6.93;5.37;;;2.90;99.90;;;;;;5076407;28;20246;-44
2022/03/31 11:52:57;;;;;;;9.90;5.50;;;2.90;99.90;;;;;;5076794;27;20213;-44
2022/03/31 11:55:25;;;;;;;6.40;5.43;;;2.80;99.90;;;;;;5084506;27;20320;-44
2022/03/31 11:57:57;;;;;;;6.33;5.23;;;2.80;99.90;;;;;;5073093;28;20201;-49
2022/03/31 12:00:26;;;;;;;5.37;4.63;;;2.80;99.90;;;;;;5092719;28;20230;-43
2022/03/31 12:03:00;;;;;;;5.37;4.57;;;2.90;99.90;;;;;;5054622;27;20203;-43
2022/03/31 12:05:27;;;;;;;6.57;4.50;;;2.90;99.90;;;;;;5082188;27;20462;-44
2022/03/31 12:07:54;;;;;;;4.73;4.03;;;3.00;99.90;;;;;;5070892;27;20500;-48
2022/03/31 12:10:22;;;;;;;6.23;4.83;;;3.10;99.90;;;;;;5073462;27;20576;-47
2022/03/31 12:12:51;;;;;;;6.53;3.97;;;3.10;99.90;;;;;;5084450;28;20200;-47
2022/03/31 12:15:26;;;;;;;7.37;4.37;;;3.10;99.90;;;;;;5060891;27;20406;-45
2022/03/31 12:17:59;;;;;;;7.57;4.63;;;3.20;99.90;;;;;;5070043;27;20211;-48
2022/03/31 12:20:26;;;;;;;4.77;3.97;;;3.10;99.90;;;;;;5076272;27;20207;-46
2022/03/31 12:22:53;;;;;;;4.70;3.97;;;3.20;99.90;;;;;;5066076;27;20210;-49
2022/03/31 12:25:28;;;;;;;4.87;3.63;;;3.30;99.90;;;;;;5082003;27;20457;-43
2022/03/31 12:27:57;;;;;;;5.77;3.73;;;3.40;99.90;;;;;;5087240;27;20771;-48
2022/03/31 12:30:24;;;;;;;7.73;4.23;;;3.30;99.90;;;;;;5077271;27;20525;-44
2022/03/31 12:32:51;;;;;;;4.60;3.57;;;3.30;99.90;;;;;;5077356;27;20294;-43
2022/03/31 12:35:30;;;;;;;5.97;4.17;;;3.40;99.90;;;;;;5076308;27;20552;-44
2022/03/31 12:37:56;;;;;;;4.83;3.80;;;3.40;99.90;;;;;;5080941;27;20195;-43
2022/03/31 12:40:26;;;;;;;4.10;3.43;;;3.40;99.90;;;;;;5085223;27;20203;-44
2022/03/31 12:42:54;;;;;;;4.23;3.60;;;3.40;99.90;;;;;;5080183;27;21670;-44
2022/03/31 12:45:24;;;;;;;5.97;4.13;;;3.40;99.90;;;;;;5072161;27;20232;-44
2022/03/31 12:47:51;;;;;;;5.57;4.00;;;3.50;99.90;;;;;;5088192;27;21042;-44
2022/03/31 12:50:21;;;;;;;6.37;3.83;;;3.50;99.90;;;;;;5079850;27;20286;-43
2022/03/31 12:52:56;;;;;;;4.33;3.60;;;3.50;99.90;;;;;;5055935;28;20537;-44
2022/03/31 12:55:30;;;;;;;6.10;4.00;;;3.50;99.90;;;;;;5093008;27;20226;-44
2022/03/31 12:57:59;;;;;;;5.87;3.47;;;3.60;99.90;;;;;;5091729;27;20227;-44
2022/03/31 13:00:28;;;;;;;4.83;3.60;;;3.70;99.90;;;;;;5077375;27;20208;-43
2022/03/31 13:02:56;;;;;;;6.33;3.67;;;3.70;99.90;;;;;;5096123;27;20203;-44
2022/03/31 13:05:25;;;;;;;4.73;3.67;;;3.80;99.90;;;;;;5080243;27;20199;-43